sensor_id;sensor_type;location;lat;lon;timestamp;P1;durP1;ratioP1;P2;durP2;ratioP2
69956;SDS011;57283;54.816;9.482;2023-04-03T00:01:10;6.15;;;1.58;;
69956;SDS011;57283;54.816;9.482;2023-04-03T00:03:38;3.88;;;1.50;;
69956;SDS011;57283;54.816;9.482;2023-04-03T00:06:07;4.35;;;1.58;;
69956;SDS011;57283;54.816;9.482;2023-04-03T00:08:39;3.97;;;1.40;;
69956;SDS011;57283;54.816;9.482;2023-04-03T00:11:07;3.58;;;1.23;;
69956;SDS011;57283;54.816;9.482;2023-04-03T00:13:36;4.97;;;1.17;;
69956;SDS011;57283;54.816;9.482;2023-04-03T00:16:05;4.53;;;1.20;;
69956;SDS011;57283;54.816;9.482;2023-04-03T00:18:33;3.70;;;1.35;;
69956;SDS011;57283;54.816;9.482;2023-04-03T00:21:01;4.97;;;1.43;;
69956;SDS011;57283;54.816;9.482;2023-04-03T00:23:29;4.18;;;1.30;;
69956;SDS011;57283;54.816;9.482;2023-04-03T00:25:59;3.47;;;1.23;;
69956;SDS011;57283;54.816;9.482;2023-04-03T00:28:27;4.43;;;1.35;;
69956;SDS011;57283;54.816;9.482;2023-04-03T00:30:55;4.65;;;1.88;;
69956;SDS011;57283;54.816;9.482;2023-04-03T00:33:23;5.10;;;1.20;;
69956;SDS011;57283;54.816;9.482;2023-04-03T00:35:51;2.95;;;0.85;;
69956;SDS011;57283;54.816;9.482;2023-04-03T00:38:22;3.70;;;1.20;;
69956;SDS011;57283;54.816;9.482;2023-04-03T00:40:50;5.00;;;1.65;;
69956;SDS011;57283;54.816;9.482;2023-04-03T00:43:20;3.58;;;1.17;;
69956;SDS011;57283;54.816;9.482;2023-04-03T00:45:52;3.53;;;1.00;;
69956;SDS011;57283;54.816;9.482;2023-04-03T00:48:22;4.65;;;1.30;;
69956;SDS011;57283;54.816;9.482;2023-04-03T00:50:54;3.92;;;1.00;;
69956;SDS011;57283;54.816;9.482;2023-04-03T00:53:25;5.00;;;1.67;;
69956;SDS011;57283;54.816;9.482;2023-04-03T00:55:56;4.18;;;1.42;;
69956;SDS011;57283;54.816;9.482;2023-04-03T00:58:28;5.70;;;1.43;;
69956;SDS011;57283;54.816;9.482;2023-04-03T01:01:03;3.58;;;1.33;;
69956;SDS011;57283;54.816;9.482;2023-04-03T01:03:35;4.07;;;1.40;;
69956;SDS011;57283;54.816;9.482;2023-04-03T01:06:03;4.25;;;1.58;;
69956;SDS011;57283;54.816;9.482;2023-04-03T01:08:32;3.92;;;1.20;;
69956;SDS011;57283;54.816;9.482;2023-04-03T01:11:00;3.77;;;1.03;;
69956;SDS011;57283;54.816;9.482;2023-04-03T01:13:30;4.03;;;1.45;;
69956;SDS011;57283;54.816;9.482;2023-04-03T01:16:00;3.58;;;1.25;;
69956;SDS011;57283;54.816;9.482;2023-04-03T01:18:29;4.70;;;1.73;;
69956;SDS011;57283;54.816;9.482;2023-04-03T01:21:06;4.00;;;1.27;;
69956;SDS011;57283;54.816;9.482;2023-04-03T01:23:53;3.50;;;1.20;;
69956;SDS011;57283;54.816;9.482;2023-04-03T01:26:32;4.18;;;1.45;;
69956;SDS011;57283;54.816;9.482;2023-04-03T01:29:03;4.25;;;1.20;;
69956;SDS011;57283;54.816;9.482;2023-04-03T01:31:32;9.43;;;1.50;;
69956;SDS011;57283;54.816;9.482;2023-04-03T01:34:16;3.13;;;1.05;;
69956;SDS011;57283;54.816;9.482;2023-04-03T01:36:44;5.33;;;1.50;;
69956;SDS011;57283;54.816;9.482;2023-04-03T01:39:12;4.30;;;1.30;;
69956;SDS011;57283;54.816;9.482;2023-04-03T01:41:40;3.75;;;1.08;;
69956;SDS011;57283;54.816;9.482;2023-04-03T01:44:08;4.95;;;1.48;;
69956;SDS011;57283;54.816;9.482;2023-04-03T01:46:36;3.83;;;1.40;;
69956;SDS011;57283;54.816;9.482;2023-04-03T01:49:05;3.77;;;1.07;;
69956;SDS011;57283;54.816;9.482;2023-04-03T01:51:33;3.08;;;0.85;;
69956;SDS011;57283;54.816;9.482;2023-04-03T01:54:01;3.15;;;1.00;;
69956;SDS011;57283;54.816;9.482;2023-04-03T01:56:29;4.93;;;1.55;;
69956;SDS011;57283;54.816;9.482;2023-04-03T01:58:57;3.42;;;1.20;;
69956;SDS011;57283;54.816;9.482;2023-04-03T02:01:25;5.87;;;1.60;;
69956;SDS011;57283;54.816;9.482;2023-04-03T02:03:53;4.68;;;1.60;;
69956;SDS011;57283;54.816;9.482;2023-04-03T02:06:22;5.18;;;1.10;;
69956;SDS011;57283;54.816;9.482;2023-04-03T02:08:50;3.78;;;1.27;;
69956;SDS011;57283;54.816;9.482;2023-04-03T02:11:18;4.55;;;1.50;;
69956;SDS011;57283;54.816;9.482;2023-04-03T02:13:46;4.70;;;1.10;;
69956;SDS011;57283;54.816;9.482;2023-04-03T02:16:14;3.90;;;1.33;;
69956;SDS011;57283;54.816;9.482;2023-04-03T02:18:42;3.45;;;1.10;;
69956;SDS011;57283;54.816;9.482;2023-04-03T02:21:10;3.97;;;1.17;;
69956;SDS011;57283;54.816;9.482;2023-04-03T02:23:39;3.55;;;1.27;;
69956;SDS011;57283;54.816;9.482;2023-04-03T02:26:08;7.93;;;1.53;;
69956;SDS011;57283;54.816;9.482;2023-04-03T02:28:37;5.40;;;1.38;;
69956;SDS011;57283;54.816;9.482;2023-04-03T02:31:05;4.60;;;1.55;;
69956;SDS011;57283;54.816;9.482;2023-04-03T02:33:33;3.85;;;1.27;;
69956;SDS011;57283;54.816;9.482;2023-04-03T02:36:03;4.57;;;1.55;;
69956;SDS011;57283;54.816;9.482;2023-04-03T02:38:32;7.00;;;1.17;;
69956;SDS011;57283;54.816;9.482;2023-04-03T02:41:02;5.50;;;1.60;;
69956;SDS011;57283;54.816;9.482;2023-04-03T02:43:31;3.83;;;1.20;;
69956;SDS011;57283;54.816;9.482;2023-04-03T02:46:00;4.18;;;1.20;;
69956;SDS011;57283;54.816;9.482;2023-04-03T02:48:28;4.18;;;1.35;;
69956;SDS011;57283;54.816;9.482;2023-04-03T02:50:56;4.30;;;1.00;;
69956;SDS011;57283;54.816;9.482;2023-04-03T02:53:23;5.38;;;1.13;;
69956;SDS011;57283;54.816;9.482;2023-04-03T02:55:51;3.28;;;1.13;;
69956;SDS011;57283;54.816;9.482;2023-04-03T02:58:20;3.45;;;1.38;;
69956;SDS011;57283;54.816;9.482;2023-04-03T03:00:48;4.70;;;1.15;;
69956;SDS011;57283;54.816;9.482;2023-04-03T03:03:16;3.10;;;1.10;;
69956;SDS011;57283;54.816;9.482;2023-04-03T03:05:44;3.35;;;0.90;;
69956;SDS011;57283;54.816;9.482;2023-04-03T03:08:12;3.30;;;0.70;;
69956;SDS011;57283;54.816;9.482;2023-04-03T03:10:40;4.07;;;1.27;;
69956;SDS011;57283;54.816;9.482;2023-04-03T03:13:07;3.35;;;0.95;;
69956;SDS011;57283;54.816;9.482;2023-04-03T03:15:36;3.30;;;0.90;;
69956;SDS011;57283;54.816;9.482;2023-04-03T03:18:04;8.80;;;1.30;;
69956;SDS011;57283;54.816;9.482;2023-04-03T03:20:32;5.13;;;1.60;;
69956;SDS011;57283;54.816;9.482;2023-04-03T03:23:01;3.47;;;1.00;;
69956;SDS011;57283;54.816;9.482;2023-04-03T03:25:29;4.97;;;1.38;;
69956;SDS011;57283;54.816;9.482;2023-04-03T03:27:56;6.33;;;1.67;;
69956;SDS011;57283;54.816;9.482;2023-04-03T03:30:24;2.30;;;0.70;;
69956;SDS011;57283;54.816;9.482;2023-04-03T03:32:53;3.97;;;1.13;;
69956;SDS011;57283;54.816;9.482;2023-04-03T03:35:21;4.35;;;0.95;;
69956;SDS011;57283;54.816;9.482;2023-04-03T03:37:49;5.20;;;1.23;;
69956;SDS011;57283;54.816;9.482;2023-04-03T03:40:17;4.47;;;0.93;;
69956;SDS011;57283;54.816;9.482;2023-04-03T03:42:45;3.05;;;1.02;;
69956;SDS011;57283;54.816;9.482;2023-04-03T03:45:13;4.50;;;1.27;;
69956;SDS011;57283;54.816;9.482;2023-04-03T03:47:41;3.47;;;1.08;;
69956;SDS011;57283;54.816;9.482;2023-04-03T03:50:10;3.60;;;1.00;;
69956;SDS011;57283;54.816;9.482;2023-04-03T03:52:38;2.80;;;0.90;;
69956;SDS011;57283;54.816;9.482;2023-04-03T03:55:06;3.40;;;1.05;;
69956;SDS011;57283;54.816;9.482;2023-04-03T03:57:34;3.78;;;0.90;;
69956;SDS011;57283;54.816;9.482;2023-04-03T04:00:02;4.10;;;1.13;;
69956;SDS011;57283;54.816;9.482;2023-04-03T04:02:31;2.95;;;0.95;;
69956;SDS011;57283;54.816;9.482;2023-04-03T04:04:59;2.77;;;0.90;;
69956;SDS011;57283;54.816;9.482;2023-04-03T04:07:28;2.78;;;0.80;;
69956;SDS011;57283;54.816;9.482;2023-04-03T04:09:56;4.53;;;0.98;;
69956;SDS011;57283;54.816;9.482;2023-04-03T04:12:24;3.65;;;1.00;;
69956;SDS011;57283;54.816;9.482;2023-04-03T04:14:52;2.65;;;1.00;;
69956;SDS011;57283;54.816;9.482;2023-04-03T04:17:20;10.70;;;1.30;;
69956;SDS011;57283;54.816;9.482;2023-04-03T04:19:47;2.97;;;0.75;;
69956;SDS011;57283;54.816;9.482;2023-04-03T04:22:15;4.57;;;1.40;;
69956;SDS011;57283;54.816;9.482;2023-04-03T04:24:44;3.40;;;1.15;;
69956;SDS011;57283;54.816;9.482;2023-04-03T04:27:12;2.60;;;0.90;;
69956;SDS011;57283;54.816;9.482;2023-04-03T04:29:41;2.97;;;0.83;;
69956;SDS011;57283;54.816;9.482;2023-04-03T04:32:09;2.65;;;0.75;;
69956;SDS011;57283;54.816;9.482;2023-04-03T04:34:37;5.35;;;1.38;;
69956;SDS011;57283;54.816;9.482;2023-04-03T04:37:05;2.92;;;0.90;;
69956;SDS011;57283;54.816;9.482;2023-04-03T04:39:33;4.22;;;1.38;;
69956;SDS011;57283;54.816;9.482;2023-04-03T04:42:03;3.77;;;1.10;;
69956;SDS011;57283;54.816;9.482;2023-04-03T04:44:33;3.47;;;1.10;;
69956;SDS011;57283;54.816;9.482;2023-04-03T04:47:01;7.97;;;1.42;;
69956;SDS011;57283;54.816;9.482;2023-04-03T04:49:28;4.22;;;1.13;;
69956;SDS011;57283;54.816;9.482;2023-04-03T04:51:56;3.33;;;1.05;;
69956;SDS011;57283;54.816;9.482;2023-04-03T04:54:24;5.70;;;1.10;;
69956;SDS011;57283;54.816;9.482;2023-04-03T04:56:52;4.15;;;1.10;;
69956;SDS011;57283;54.816;9.482;2023-04-03T04:59:21;4.05;;;1.25;;
69956;SDS011;57283;54.816;9.482;2023-04-03T05:01:49;4.40;;;1.50;;
69956;SDS011;57283;54.816;9.482;2023-04-03T05:04:17;4.50;;;1.13;;
69956;SDS011;57283;54.816;9.482;2023-04-03T05:06:45;3.57;;;1.30;;
69956;SDS011;57283;54.816;9.482;2023-04-03T05:09:13;3.42;;;1.23;;
69956;SDS011;57283;54.816;9.482;2023-04-03T05:11:41;4.38;;;1.30;;
69956;SDS011;57283;54.816;9.482;2023-04-03T05:14:09;4.32;;;1.27;;
69956;SDS011;57283;54.816;9.482;2023-04-03T05:16:38;4.53;;;1.63;;
69956;SDS011;57283;54.816;9.482;2023-04-03T05:19:06;4.63;;;1.53;;
69956;SDS011;57283;54.816;9.482;2023-04-03T05:21:34;6.03;;;1.33;;
69956;SDS011;57283;54.816;9.482;2023-04-03T05:24:02;4.38;;;1.33;;
69956;SDS011;57283;54.816;9.482;2023-04-03T05:26:30;4.55;;;1.70;;
69956;SDS011;57283;54.816;9.482;2023-04-03T05:28:58;4.63;;;1.58;;
69956;SDS011;57283;54.816;9.482;2023-04-03T05:31:26;4.45;;;1.90;;
69956;SDS011;57283;54.816;9.482;2023-04-03T05:33:57;6.35;;;1.67;;
69956;SDS011;57283;54.816;9.482;2023-04-03T05:36:25;5.47;;;1.60;;
69956;SDS011;57283;54.816;9.482;2023-04-03T05:38:53;4.85;;;1.70;;
69956;SDS011;57283;54.816;9.482;2023-04-03T05:41:22;4.40;;;1.85;;
69956;SDS011;57283;54.816;9.482;2023-04-03T05:43:51;5.35;;;2.00;;
69956;SDS011;57283;54.816;9.482;2023-04-03T05:46:19;4.53;;;1.80;;
69956;SDS011;57283;54.816;9.482;2023-04-03T05:48:48;5.10;;;2.00;;
69956;SDS011;57283;54.816;9.482;2023-04-03T05:51:18;4.88;;;1.75;;
69956;SDS011;57283;54.816;9.482;2023-04-03T05:53:49;8.57;;;2.08;;
69956;SDS011;57283;54.816;9.482;2023-04-03T05:56:22;5.72;;;1.90;;
69956;SDS011;57283;54.816;9.482;2023-04-03T05:58:50;5.05;;;1.88;;
69956;SDS011;57283;54.816;9.482;2023-04-03T06:01:18;6.30;;;1.80;;
69956;SDS011;57283;54.816;9.482;2023-04-03T06:03:45;5.50;;;2.00;;
69956;SDS011;57283;54.816;9.482;2023-04-03T06:06:13;4.55;;;2.00;;
69956;SDS011;57283;54.816;9.482;2023-04-03T06:08:43;7.45;;;2.40;;
69956;SDS011;57283;54.816;9.482;2023-04-03T06:11:12;4.25;;;1.63;;
69956;SDS011;57283;54.816;9.482;2023-04-03T06:13:40;6.80;;;2.13;;
69956;SDS011;57283;54.816;9.482;2023-04-03T06:16:08;5.60;;;1.92;;
69956;SDS011;57283;54.816;9.482;2023-04-03T06:18:36;4.68;;;1.90;;
69956;SDS011;57283;54.816;9.482;2023-04-03T06:21:04;5.03;;;2.03;;
69956;SDS011;57283;54.816;9.482;2023-04-03T06:23:34;8.30;;;2.40;;
69956;SDS011;57283;54.816;9.482;2023-04-03T06:26:03;7.30;;;2.30;;
69956;SDS011;57283;54.816;9.482;2023-04-03T06:28:31;5.13;;;2.25;;
69956;SDS011;57283;54.816;9.482;2023-04-03T06:30:59;7.93;;;2.92;;
69956;SDS011;57283;54.816;9.482;2023-04-03T06:33:27;5.47;;;2.53;;
69956;SDS011;57283;54.816;9.482;2023-04-03T06:35:55;5.83;;;2.80;;
69956;SDS011;57283;54.816;9.482;2023-04-03T06:38:24;6.10;;;3.08;;
69956;SDS011;57283;54.816;9.482;2023-04-03T06:40:52;4.82;;;2.90;;
69956;SDS011;57283;54.816;9.482;2023-04-03T06:43:21;5.40;;;3.13;;
69956;SDS011;57283;54.816;9.482;2023-04-03T06:45:50;4.80;;;2.90;;
69956;SDS011;57283;54.816;9.482;2023-04-03T06:48:18;5.83;;;3.10;;
69956;SDS011;57283;54.816;9.482;2023-04-03T06:50:47;5.85;;;3.33;;
69956;SDS011;57283;54.816;9.482;2023-04-03T06:53:14;5.85;;;3.20;;
69956;SDS011;57283;54.816;9.482;2023-04-03T06:55:42;5.25;;;2.90;;
69956;SDS011;57283;54.816;9.482;2023-04-03T06:58:10;5.63;;;3.05;;
69956;SDS011;57283;54.816;9.482;2023-04-03T07:00:39;5.80;;;3.17;;
69956;SDS011;57283;54.816;9.482;2023-04-03T07:03:07;5.50;;;3.45;;
69956;SDS011;57283;54.816;9.482;2023-04-03T07:05:35;6.00;;;3.28;;
69956;SDS011;57283;54.816;9.482;2023-04-03T07:08:03;5.63;;;3.10;;
69956;SDS011;57283;54.816;9.482;2023-04-03T07:10:31;6.13;;;3.25;;
69956;SDS011;57283;54.816;9.482;2023-04-03T07:12:59;31.57;;;4.53;;
69956;SDS011;57283;54.816;9.482;2023-04-03T07:15:27;4.93;;;2.80;;
69956;SDS011;57283;54.816;9.482;2023-04-03T07:17:57;5.88;;;2.85;;
69956;SDS011;57283;54.816;9.482;2023-04-03T07:20:25;5.93;;;3.10;;
69956;SDS011;57283;54.816;9.482;2023-04-03T07:22:53;7.00;;;3.50;;
69956;SDS011;57283;54.816;9.482;2023-04-03T07:25:24;5.93;;;2.90;;
69956;SDS011;57283;54.816;9.482;2023-04-03T07:27:52;6.65;;;2.88;;
69956;SDS011;57283;54.816;9.482;2023-04-03T07:30:21;5.55;;;3.10;;
69956;SDS011;57283;54.816;9.482;2023-04-03T07:32:49;6.22;;;3.05;;
69956;SDS011;57283;54.816;9.482;2023-04-03T07:35:19;5.28;;;3.20;;
69956;SDS011;57283;54.816;9.482;2023-04-03T07:37:47;7.20;;;3.00;;
69956;SDS011;57283;54.816;9.482;2023-04-03T07:40:15;5.35;;;2.60;;
69956;SDS011;57283;54.816;9.482;2023-04-03T07:42:44;5.75;;;2.88;;
69956;SDS011;57283;54.816;9.482;2023-04-03T07:45:12;5.57;;;2.67;;
69956;SDS011;57283;54.816;9.482;2023-04-03T07:47:41;6.80;;;3.17;;
69956;SDS011;57283;54.816;9.482;2023-04-03T07:50:09;6.60;;;2.80;;
69956;SDS011;57283;54.816;9.482;2023-04-03T07:52:38;5.07;;;2.80;;
69956;SDS011;57283;54.816;9.482;2023-04-03T07:55:07;5.45;;;2.70;;
69956;SDS011;57283;54.816;9.482;2023-04-03T07:57:35;6.07;;;2.45;;
69956;SDS011;57283;54.816;9.482;2023-04-03T08:00:04;5.30;;;2.25;;
69956;SDS011;57283;54.816;9.482;2023-04-03T08:02:33;6.97;;;2.30;;
69956;SDS011;57283;54.816;9.482;2023-04-03T08:05:01;6.10;;;2.60;;
69956;SDS011;57283;54.816;9.482;2023-04-03T08:07:29;5.40;;;2.50;;
69956;SDS011;57283;54.816;9.482;2023-04-03T08:09:58;7.20;;;2.60;;
69956;SDS011;57283;54.816;9.482;2023-04-03T08:12:26;5.68;;;2.55;;
69956;SDS011;57283;54.816;9.482;2023-04-03T08:14:54;5.67;;;2.60;;
69956;SDS011;57283;54.816;9.482;2023-04-03T08:17:22;4.00;;;2.17;;
69956;SDS011;57283;54.816;9.482;2023-04-03T08:19:51;6.47;;;2.50;;
69956;SDS011;57283;54.816;9.482;2023-04-03T08:22:19;5.07;;;2.20;;
69956;SDS011;57283;54.816;9.482;2023-04-03T08:24:47;5.28;;;2.60;;
69956;SDS011;57283;54.816;9.482;2023-04-03T08:27:25;4.67;;;2.30;;
69956;SDS011;57283;54.816;9.482;2023-04-03T08:29:53;6.20;;;2.30;;
69956;SDS011;57283;54.816;9.482;2023-04-03T08:32:21;4.55;;;2.10;;
69956;SDS011;57283;54.816;9.482;2023-04-03T08:34:50;5.25;;;2.10;;
69956;SDS011;57283;54.816;9.482;2023-04-03T08:37:18;3.88;;;2.30;;
69956;SDS011;57283;54.816;9.482;2023-04-03T08:39:46;4.77;;;2.30;;
69956;SDS011;57283;54.816;9.482;2023-04-03T08:42:15;5.15;;;2.50;;
69956;SDS011;57283;54.816;9.482;2023-04-03T08:44:54;5.10;;;2.40;;
69956;SDS011;57283;54.816;9.482;2023-04-03T08:47:30;4.30;;;2.50;;
69956;SDS011;57283;54.816;9.482;2023-04-03T08:50:05;4.25;;;2.70;;
69956;SDS011;57283;54.816;9.482;2023-04-03T08:52:40;4.43;;;2.47;;
69956;SDS011;57283;54.816;9.482;2023-04-03T08:55:15;5.10;;;2.85;;
69956;SDS011;57283;54.816;9.482;2023-04-03T08:57:50;4.50;;;3.35;;
69956;SDS011;57283;54.816;9.482;2023-04-03T09:00:23;4.43;;;2.83;;
69956;SDS011;57283;54.816;9.482;2023-04-03T09:02:54;5.30;;;3.55;;
69956;SDS011;57283;54.816;9.482;2023-04-03T09:05:28;5.27;;;2.80;;
69956;SDS011;57283;54.816;9.482;2023-04-03T09:08:03;5.05;;;2.67;;
69956;SDS011;57283;54.816;9.482;2023-04-03T09:10:34;4.53;;;3.08;;
69956;SDS011;57283;54.816;9.482;2023-04-03T09:13:06;6.13;;;3.67;;
69956;SDS011;57283;54.816;9.482;2023-04-03T09:15:42;4.95;;;3.05;;
69956;SDS011;57283;54.816;9.482;2023-04-03T09:18:13;5.33;;;2.97;;
69956;SDS011;57283;54.816;9.482;2023-04-03T09:20:46;5.85;;;3.47;;
69956;SDS011;57283;54.816;9.482;2023-04-03T09:23:25;4.72;;;3.03;;
69956;SDS011;57283;54.816;9.482;2023-04-03T09:25:58;4.80;;;3.33;;
69956;SDS011;57283;54.816;9.482;2023-04-03T09:28:32;5.45;;;3.85;;
69956;SDS011;57283;54.816;9.482;2023-04-03T09:31:18;6.77;;;3.70;;
69956;SDS011;57283;54.816;9.482;2023-04-03T09:33:49;4.60;;;3.17;;
69956;SDS011;57283;54.816;9.482;2023-04-03T09:36:39;5.30;;;3.35;;
69956;SDS011;57283;54.816;9.482;2023-04-03T09:39:10;5.18;;;3.05;;
69956;SDS011;57283;54.816;9.482;2023-04-03T09:41:41;6.72;;;3.30;;
69956;SDS011;57283;54.816;9.482;2023-04-03T09:44:22;4.70;;;3.00;;
69956;SDS011;57283;54.816;9.482;2023-04-03T09:46:53;5.78;;;3.15;;
69956;SDS011;57283;54.816;9.482;2023-04-03T09:49:21;5.50;;;3.00;;
69956;SDS011;57283;54.816;9.482;2023-04-03T09:51:49;7.47;;;3.88;;
69956;SDS011;57283;54.816;9.482;2023-04-03T09:54:25;5.15;;;3.05;;
69956;SDS011;57283;54.816;9.482;2023-04-03T09:57:07;5.37;;;3.20;;
69956;SDS011;57283;54.816;9.482;2023-04-03T09:59:45;5.20;;;2.53;;
69956;SDS011;57283;54.816;9.482;2023-04-03T10:02:23;5.45;;;2.70;;
69956;SDS011;57283;54.816;9.482;2023-04-03T10:04:59;5.38;;;2.90;;
69956;SDS011;57283;54.816;9.482;2023-04-03T10:07:31;4.75;;;3.17;;
69956;SDS011;57283;54.816;9.482;2023-04-03T10:10:02;5.33;;;3.70;;
69956;SDS011;57283;54.816;9.482;2023-04-03T10:13:03;4.50;;;2.80;;
69956;SDS011;57283;54.816;9.482;2023-04-03T10:15:34;5.13;;;3.05;;
69956;SDS011;57283;54.816;9.482;2023-04-03T10:18:12;6.38;;;3.10;;
69956;SDS011;57283;54.816;9.482;2023-04-03T10:20:50;4.53;;;2.90;;
69956;SDS011;57283;54.816;9.482;2023-04-03T10:23:21;5.60;;;2.23;;
69956;SDS011;57283;54.816;9.482;2023-04-03T10:25:55;5.43;;;3.10;;
69956;SDS011;57283;54.816;9.482;2023-04-03T10:28:35;5.28;;;3.15;;
69956;SDS011;57283;54.816;9.482;2023-04-03T10:31:13;4.07;;;2.67;;
69956;SDS011;57283;54.816;9.482;2023-04-03T10:33:54;6.30;;;3.45;;
69956;SDS011;57283;54.816;9.482;2023-04-03T10:36:33;6.20;;;3.20;;
69956;SDS011;57283;54.816;9.482;2023-04-03T10:39:08;4.60;;;3.35;;
69956;SDS011;57283;54.816;9.482;2023-04-03T10:41:48;5.03;;;3.33;;
69956;SDS011;57283;54.816;9.482;2023-04-03T10:44:43;6.05;;;3.63;;
69956;SDS011;57283;54.816;9.482;2023-04-03T10:47:24;5.60;;;3.55;;
69956;SDS011;57283;54.816;9.482;2023-04-03T10:50:05;6.03;;;2.90;;
69956;SDS011;57283;54.816;9.482;2023-04-03T10:52:51;5.50;;;2.97;;
69956;SDS011;57283;54.816;9.482;2023-04-03T10:55:28;4.93;;;3.53;;
69956;SDS011;57283;54.816;9.482;2023-04-03T10:58:03;5.05;;;3.50;;
69956;SDS011;57283;54.816;9.482;2023-04-03T11:00:37;5.47;;;3.35;;
69956;SDS011;57283;54.816;9.482;2023-04-03T11:03:11;4.97;;;2.80;;
69956;SDS011;57283;54.816;9.482;2023-04-03T11:05:44;5.55;;;3.25;;
69956;SDS011;57283;54.816;9.482;2023-04-03T11:08:17;5.35;;;2.50;;
69956;SDS011;57283;54.816;9.482;2023-04-03T11:10:54;5.68;;;2.58;;
69956;SDS011;57283;54.816;9.482;2023-04-03T11:13:27;4.70;;;2.85;;
69956;SDS011;57283;54.816;9.482;2023-04-03T11:15:58;4.53;;;2.77;;
69956;SDS011;57283;54.816;9.482;2023-04-03T11:18:27;4.60;;;3.03;;
69956;SDS011;57283;54.816;9.482;2023-04-03T11:21:06;4.90;;;2.22;;
69956;SDS011;57283;54.816;9.482;2023-04-03T11:23:39;4.63;;;2.53;;
69956;SDS011;57283;54.816;9.482;2023-04-03T11:26:16;5.32;;;2.00;;
69956;SDS011;57283;54.816;9.482;2023-04-03T11:28:48;5.13;;;2.27;;
69956;SDS011;57283;54.816;9.482;2023-04-03T11:31:24;4.88;;;2.80;;
69956;SDS011;57283;54.816;9.482;2023-04-03T11:34:05;4.07;;;2.00;;
69956;SDS011;57283;54.816;9.482;2023-04-03T11:36:45;5.07;;;2.20;;
69956;SDS011;57283;54.816;9.482;2023-04-03T11:39:18;3.50;;;2.10;;
69956;SDS011;57283;54.816;9.482;2023-04-03T11:41:50;4.77;;;2.20;;
69956;SDS011;57283;54.816;9.482;2023-04-03T11:44:33;3.63;;;2.10;;
69956;SDS011;57283;54.816;9.482;2023-04-03T11:47:04;4.47;;;2.15;;
69956;SDS011;57283;54.816;9.482;2023-04-03T11:49:53;4.20;;;2.50;;
69956;SDS011;57283;54.816;9.482;2023-04-03T11:58:28;3.87;;;2.10;;
69956;SDS011;57283;54.816;9.482;2023-04-03T12:01:01;3.70;;;2.42;;
69956;SDS011;57283;54.816;9.482;2023-04-03T12:09:31;4.40;;;2.30;;
69956;SDS011;57283;54.816;9.482;2023-04-03T12:12:28;3.57;;;2.00;;
69956;SDS011;57283;54.816;9.482;2023-04-03T12:15:11;5.00;;;2.25;;
69956;SDS011;57283;54.816;9.482;2023-04-03T12:17:50;4.05;;;2.30;;
69956;SDS011;57283;54.816;9.482;2023-04-03T12:23:25;3.83;;;2.10;;
69956;SDS011;57283;54.816;9.482;2023-04-03T12:25:59;3.50;;;2.30;;
69956;SDS011;57283;54.816;9.482;2023-04-03T12:28:37;3.83;;;2.30;;
69956;SDS011;57283;54.816;9.482;2023-04-03T12:31:08;3.20;;;2.10;;
69956;SDS011;57283;54.816;9.482;2023-04-03T12:33:41;3.50;;;2.03;;
69956;SDS011;57283;54.816;9.482;2023-04-03T12:36:26;4.45;;;2.30;;
69956;SDS011;57283;54.816;9.482;2023-04-03T12:39:03;4.33;;;2.50;;
69956;SDS011;57283;54.816;9.482;2023-04-03T12:41:50;3.90;;;2.35;;
69956;SDS011;57283;54.816;9.482;2023-04-03T12:44:33;4.00;;;2.22;;
69956;SDS011;57283;54.816;9.482;2023-04-03T12:47:08;4.15;;;2.42;;
69956;SDS011;57283;54.816;9.482;2023-04-03T12:49:49;4.63;;;2.00;;
69956;SDS011;57283;54.816;9.482;2023-04-03T12:52:19;4.23;;;2.13;;
69956;SDS011;57283;54.816;9.482;2023-04-03T12:54:56;4.05;;;2.50;;
69956;SDS011;57283;54.816;9.482;2023-04-03T12:57:24;5.32;;;2.60;;
69956;SDS011;57283;54.816;9.482;2023-04-03T12:59:55;4.00;;;1.90;;
69956;SDS011;57283;54.816;9.482;2023-04-03T13:02:24;4.28;;;2.60;;
69956;SDS011;57283;54.816;9.482;2023-04-03T13:04:54;3.60;;;2.30;;
69956;SDS011;57283;54.816;9.482;2023-04-03T13:07:25;4.38;;;2.08;;
69956;SDS011;57283;54.816;9.482;2023-04-03T13:09:58;4.72;;;2.42;;
69956;SDS011;57283;54.816;9.482;2023-04-03T13:12:28;4.55;;;2.10;;
69956;SDS011;57283;54.816;9.482;2023-04-03T13:14:59;4.32;;;2.55;;
69956;SDS011;57283;54.816;9.482;2023-04-03T13:17:30;4.13;;;2.37;;
69956;SDS011;57283;54.816;9.482;2023-04-03T13:20:09;4.45;;;2.25;;
69956;SDS011;57283;54.816;9.482;2023-04-03T13:22:39;4.97;;;2.50;;
69956;SDS011;57283;54.816;9.482;2023-04-03T13:25:15;7.25;;;2.53;;
69956;SDS011;57283;54.816;9.482;2023-04-03T13:27:44;3.78;;;1.90;;
69956;SDS011;57283;54.816;9.482;2023-04-03T13:30:20;4.80;;;2.43;;
69956;SDS011;57283;54.816;9.482;2023-04-03T13:32:52;5.43;;;2.08;;
69956;SDS011;57283;54.816;9.482;2023-04-03T13:35:28;3.97;;;2.28;;
69956;SDS011;57283;54.816;9.482;2023-04-03T13:38:01;3.97;;;2.20;;
69956;SDS011;57283;54.816;9.482;2023-04-03T13:40:32;4.28;;;2.15;;
69956;SDS011;57283;54.816;9.482;2023-04-03T13:43:18;3.60;;;2.10;;
69956;SDS011;57283;54.816;9.482;2023-04-03T13:45:59;4.70;;;2.30;;
69956;SDS011;57283;54.816;9.482;2023-04-03T13:48:35;5.00;;;2.22;;
69956;SDS011;57283;54.816;9.482;2023-04-03T13:51:12;5.13;;;2.33;;
69956;SDS011;57283;54.816;9.482;2023-04-03T13:53:46;3.60;;;2.15;;
69956;SDS011;57283;54.816;9.482;2023-04-03T13:56:18;4.30;;;2.30;;
69956;SDS011;57283;54.816;9.482;2023-04-03T13:58:53;5.32;;;2.13;;
69956;SDS011;57283;54.816;9.482;2023-04-03T14:01:42;3.53;;;1.75;;
69956;SDS011;57283;54.816;9.482;2023-04-03T14:04:14;4.43;;;2.30;;
69956;SDS011;57283;54.816;9.482;2023-04-03T14:06:44;3.88;;;1.98;;
69956;SDS011;57283;54.816;9.482;2023-04-03T14:09:13;4.37;;;1.90;;
69956;SDS011;57283;54.816;9.482;2023-04-03T14:11:41;5.43;;;1.60;;
69956;SDS011;57283;54.816;9.482;2023-04-03T14:14:12;5.85;;;1.80;;
69956;SDS011;57283;54.816;9.482;2023-04-03T14:16:44;3.20;;;1.60;;
69956;SDS011;57283;54.816;9.482;2023-04-03T14:19:17;3.70;;;1.60;;
69956;SDS011;57283;54.816;9.482;2023-04-03T14:21:49;5.77;;;1.50;;
69956;SDS011;57283;54.816;9.482;2023-04-03T14:24:18;3.15;;;1.40;;
69956;SDS011;57283;54.816;9.482;2023-04-03T14:26:47;3.85;;;1.52;;
69956;SDS011;57283;54.816;9.482;2023-04-03T14:29:16;3.58;;;1.70;;
69956;SDS011;57283;54.816;9.482;2023-04-03T14:31:47;4.45;;;1.77;;
69956;SDS011;57283;54.816;9.482;2023-04-03T14:34:25;4.20;;;1.50;;
69956;SDS011;57283;54.816;9.482;2023-04-03T14:36:53;4.25;;;1.38;;
69956;SDS011;57283;54.816;9.482;2023-04-03T14:39:21;4.43;;;1.50;;
69956;SDS011;57283;54.816;9.482;2023-04-03T14:41:49;3.60;;;1.40;;
69956;SDS011;57283;54.816;9.482;2023-04-03T14:44:17;3.47;;;1.40;;
69956;SDS011;57283;54.816;9.482;2023-04-03T14:46:46;4.00;;;1.37;;
69956;SDS011;57283;54.816;9.482;2023-04-03T14:49:24;3.42;;;1.50;;
69956;SDS011;57283;54.816;9.482;2023-04-03T14:51:55;4.50;;;1.30;;
69956;SDS011;57283;54.816;9.482;2023-04-03T14:54:24;4.93;;;1.50;;
69956;SDS011;57283;54.816;9.482;2023-04-03T14:56:54;3.75;;;1.35;;
69956;SDS011;57283;54.816;9.482;2023-04-03T14:59:24;5.33;;;1.40;;
69956;SDS011;57283;54.816;9.482;2023-04-03T15:01:54;5.10;;;1.20;;
69956;SDS011;57283;54.816;9.482;2023-04-03T15:04:21;3.33;;;1.10;;
69956;SDS011;57283;54.816;9.482;2023-04-03T15:06:50;3.97;;;1.15;;
69956;SDS011;57283;54.816;9.482;2023-04-03T15:09:20;3.80;;;1.20;;
69956;SDS011;57283;54.816;9.482;2023-04-03T15:11:50;3.33;;;1.20;;
69956;SDS011;57283;54.816;9.482;2023-04-03T15:14:19;4.63;;;1.30;;
69956;SDS011;57283;54.816;9.482;2023-04-03T15:17:03;4.95;;;1.50;;
69956;SDS011;57283;54.816;9.482;2023-04-03T15:19:32;5.32;;;1.08;;
69956;SDS011;57283;54.816;9.482;2023-04-03T15:22:04;3.70;;;1.13;;
69956;SDS011;57283;54.816;9.482;2023-04-03T15:24:32;5.20;;;1.40;;
69956;SDS011;57283;54.816;9.482;2023-04-03T15:27:00;4.05;;;1.10;;